Time;durP1;ratioP1;P1;durP2;ratioP2;P2;SDS_P1;SDS_P2;PMS_P1;PMS_P2;Temp;Humidity;BMP_temperature;BMP_pressure;BME280_temperature;BME280_humidity;BME280_pressure;Samples;Min_cycle;Max_cycle;Signal;HPM_P1;HPM_P2
2022/12/16 00:01:03;;;;;;;28.95;26.50;;;;;;;;;;5113733;28;20206;-77
2022/12/16 00:03:30;;;;;;;28.98;26.55;;;;;;;;;;5113274;28;20190;-76
2022/12/16 00:05:57;;;;;;;29.45;27.15;;;;;;;;;;5113787;28;20257;-75
2022/12/16 00:08:25;;;;;;;26.58;24.55;;;;;;;;;;5113396;28;20271;-77
2022/12/16 00:10:57;;;;;;;28.00;25.95;;;;;;;;;;5113493;28;20202;-77
2022/12/16 00:13:24;;;;;;;28.67;26.58;;;;;;;;;;5113210;28;20198;-76
2022/12/16 00:15:51;;;;;;;26.92;25.08;;;;;;;;;;5113692;28;20234;-77
2022/12/16 00:18:18;;;;;;;28.17;25.80;;;;;;;;;;5113703;28;20202;-76
2022/12/16 00:20:46;;;;;;;28.13;25.77;;;;;;;;;;5113676;28;20296;-76
2022/12/16 00:23:13;;;;;;;27.02;24.67;;;;;;;;;;5113041;28;20225;-76
2022/12/16 00:25:43;;;;;;;27.60;25.67;;;;;;;;;;5113544;28;20283;-76
2022/12/16 00:28:10;;;;;;;27.20;25.20;;;;;;;;;;5113723;28;20218;-76
2022/12/16 00:30:38;;;;;;;27.70;25.50;;;;;;;;;;5113316;28;20208;-76
2022/12/16 00:33:05;;;;;;;27.42;25.02;;;;;;;;;;5113009;28;20236;-76
2022/12/16 00:35:33;;;;;;;28.63;26.30;;;;;;;;;;5113093;28;20732;-76
2022/12/16 00:38:00;;;;;;;29.10;26.75;;;;;;;;;;5113351;28;20213;-76
2022/12/16 00:40:27;;;;;;;29.23;26.67;;;;;;;;;;5113407;28;20255;-76
2022/12/16 00:42:55;;;;;;;29.13;26.38;;;;;;;;;;5113266;28;20282;-76
2022/12/16 00:45:22;;;;;;;29.02;26.67;;;;;;;;;;5112994;28;20243;-76
2022/12/16 00:47:50;;;;;;;31.23;28.38;;;;;;;;;;5113003;28;20692;-76
2022/12/16 00:50:17;;;;;;;29.35;26.73;;;;;;;;;;5113544;28;20202;-76
2022/12/16 00:52:45;;;;;;;28.83;26.08;;;;;;;;;;5113288;28;20206;-76
2022/12/16 00:55:12;;;;;;;30.55;27.00;;;;;;;;;;5112717;28;20601;-76
2022/12/16 00:57:39;;;;;;;28.20;25.50;;;;;;;;;;5114039;28;20727;-76
2022/12/16 01:00:11;;;;;;;29.20;26.55;;;;;;;;;;5117466;28;20190;-75
2022/12/16 01:02:38;;;;;;;29.88;27.17;;;;;;;;;;5117300;28;20191;-75
2022/12/16 01:05:06;;;;;;;28.45;26.45;;;;;;;;;;5116481;28;20213;-76
2022/12/16 01:07:33;;;;;;;27.45;25.45;;;;;;;;;;5116957;28;20218;-76
2022/12/16 01:10:00;;;;;;;26.90;24.90;;;;;;;;;;5117159;28;20198;-76
2022/12/16 01:12:27;;;;;;;26.30;24.35;;;;;;;;;;5117190;28;20246;-76
2022/12/16 01:14:54;;;;;;;27.20;25.10;;;;;;;;;;5116299;28;20693;-76
2022/12/16 01:17:24;;;;;;;27.02;25.08;;;;;;;;;;5117211;28;20226;-76
2022/12/16 01:19:51;;;;;;;26.40;24.35;;;;;;;;;;5116713;28;20229;-76
2022/12/16 01:22:19;;;;;;;27.02;24.85;;;;;;;;;;5116675;28;20663;-77
2022/12/16 01:24:46;;;;;;;25.98;24.15;;;;;;;;;;5116136;28;20213;-76
2022/12/16 01:27:13;;;;;;;26.40;24.40;;;;;;;;;;5116699;28;20229;-76
2022/12/16 01:29:40;;;;;;;27.20;25.33;;;;;;;;;;5117096;28;20213;-76
2022/12/16 01:32:07;;;;;;;26.30;24.20;;;;;;;;;;5116874;28;20210;-76
2022/12/16 01:34:36;;;;;;;27.45;25.70;;;;;;;;;;5116267;28;20255;-77
2022/12/16 01:37:03;;;;;;;29.65;27.27;;;;;;;;;;5116546;28;20214;-76
2022/12/16 01:39:30;;;;;;;28.08;25.98;;;;;;;;;;5116750;28;20318;-75
2022/12/16 01:41:57;;;;;;;26.48;24.58;;;;;;;;;;5116351;28;20735;-76
2022/12/16 01:44:25;;;;;;;27.13;24.90;;;;;;;;;;5115764;28;20276;-75
2022/12/16 01:46:54;;;;;;;27.65;25.45;;;;;;;;;;5116059;28;20731;-76
2022/12/16 01:49:24;;;;;;;28.52;26.20;;;;;;;;;;5116500;28;20211;-76
2022/12/16 01:51:53;;;;;;;26.58;24.58;;;;;;;;;;5116282;28;20206;-76
2022/12/16 01:54:22;;;;;;;28.92;26.83;;;;;;;;;;5116135;28;20242;-76
2022/12/16 01:56:51;;;;;;;27.90;25.85;;;;;;;;;;5116245;28;20229;-76
2022/12/16 01:59:20;;;;;;;27.63;25.42;;;;;;;;;;5116379;28;20724;-76
2022/12/16 02:01:47;;;;;;;28.65;26.65;;;;;;;;;;5116218;28;20229;-75
2022/12/16 02:04:14;;;;;;;27.10;25.20;;;;;;;;;;5115740;28;20233;-76
2022/12/16 02:06:41;;;;;;;29.05;26.48;;;;;;;;;;5116029;28;20304;-76
2022/12/16 02:09:12;;;;;;;27.92;26.02;;;;;;;;;;5115149;28;20299;-76
2022/12/16 02:11:46;;;;;;;27.60;25.60;;;;;;;;;;5115728;28;20972;-75
2022/12/16 02:14:21;;;;;;;28.55;26.45;;;;;;;;;;5115500;28;20216;-76
2022/12/16 02:16:54;;;;;;;28.05;26.05;;;;;;;;;;5116131;28;20228;-76
2022/12/16 02:19:36;;;;;;;27.15;25.15;;;;;;;;;;5116125;28;20186;-76
2022/12/16 02:22:06;;;;;;;27.05;25.13;;;;;;;;;;5115903;28;20193;-76
2022/12/16 02:24:49;;;;;;;27.83;26.02;;;;;;;;;;5114903;28;20739;-75
2022/12/16 02:27:50;;;;;;;27.33;25.30;;;;;;;;;;5115834;28;20316;-76
2022/12/16 02:30:37;;;;;;;28.77;26.65;;;;;;;;;;5115806;28;20594;-76
2022/12/16 02:33:10;;;;;;;27.48;25.48;;;;;;;;;;5109733;28;20209;-76
2022/12/16 02:35:40;;;;;;;29.08;27.27;;;;;;;;;;5115226;28;20558;-76
2022/12/16 02:38:14;;;;;;;28.90;26.88;;;;;;;;;;5115478;28;20558;-77
2022/12/16 02:40:44;;;;;;;28.00;25.95;;;;;;;;;;5115626;28;20182;-76
2022/12/16 02:43:13;;;;;;;27.48;25.30;;;;;;;;;;5114342;28;20214;-76
2022/12/16 02:45:40;;;;;;;29.35;26.98;;;;;;;;;;5115225;28;20225;-76
2022/12/16 02:48:10;;;;;;;28.05;25.95;;;;;;;;;;5115268;28;20218;-76
2022/12/16 02:50:41;;;;;;;28.58;26.48;;;;;;;;;;5115168;28;20201;-76
2022/12/16 02:53:09;;;;;;;27.95;25.75;;;;;;;;;;5114388;28;20892;-76
2022/12/16 02:55:40;;;;;;;27.77;25.67;;;;;;;;;;5115278;28;20253;-76
2022/12/16 02:58:11;;;;;;;28.73;26.63;;;;;;;;;;5114808;28;20182;-76
2022/12/16 03:00:42;;;;;;;27.95;26.00;;;;;;;;;;5115267;28;20237;-76
2022/12/16 03:03:13;;;;;;;26.38;24.67;;;;;;;;;;5114427;28;20206;-75
2022/12/16 03:05:44;;;;;;;26.35;24.55;;;;;;;;;;5114926;28;20232;-76
2022/12/16 03:08:13;;;;;;;27.55;25.70;;;;;;;;;;5114886;28;20210;-77
2022/12/16 03:10:44;;;;;;;25.90;24.30;;;;;;;;;;5115041;28;20198;-76
2022/12/16 03:13:12;;;;;;;25.67;23.92;;;;;;;;;;5114325;28;20217;-75
2022/12/16 03:15:40;;;;;;;27.42;25.63;;;;;;;;;;5114745;28;20217;-77
2022/12/16 03:18:08;;;;;;;27.67;25.63;;;;;;;;;;5114847;28;20194;-75
2022/12/16 03:20:37;;;;;;;27.58;25.20;;;;;;;;;;5113665;28;20216;-76
2022/12/16 03:23:07;;;;;;;26.70;24.70;;;;;;;;;;5114100;28;20205;-76
2022/12/16 03:25:35;;;;;;;25.60;23.98;;;;;;;;;;5114525;28;20294;-76
2022/12/16 03:28:06;;;;;;;25.60;23.98;;;;;;;;;;5114396;28;20717;-76
2022/12/16 03:30:35;;;;;;;25.83;24.13;;;;;;;;;;5114468;28;20197;-76
2022/12/16 03:33:03;;;;;;;26.13;24.40;;;;;;;;;;5112372;28;20206;-77
2022/12/16 03:35:35;;;;;;;25.88;23.98;;;;;;;;;;5113797;28;20222;-75
2022/12/16 03:38:05;;;;;;;26.10;24.25;;;;;;;;;;5114010;28;20182;-75
2022/12/16 03:40:33;;;;;;;26.77;24.30;;;;;;;;;;5114333;28;20220;-75
2022/12/16 03:43:01;;;;;;;26.20;24.33;;;;;;;;;;5113219;28;20656;-76
2022/12/16 03:45:31;;;;;;;25.67;23.95;;;;;;;;;;5114145;28;20233;-76
2022/12/16 03:47:58;;;;;;;25.95;24.25;;;;;;;;;;5114045;28;20213;-76
2022/12/16 03:50:27;;;;;;;26.98;25.08;;;;;;;;;;5114256;28;20198;-77
2022/12/16 03:52:54;;;;;;;25.88;24.08;;;;;;;;;;5113214;28;20213;-76
2022/12/16 03:55:23;;;;;;;26.88;24.77;;;;;;;;;;5113854;28;20645;-75
2022/12/16 03:57:50;;;;;;;26.60;24.67;;;;;;;;;;5114055;28;20194;-75
2022/12/16 04:00:17;;;;;;;24.90;23.35;;;;;;;;;;5113641;28;20202;-76
2022/12/16 04:02:44;;;;;;;26.30;24.60;;;;;;;;;;5113896;28;20214;-76
2022/12/16 04:05:11;;;;;;;26.77;24.90;;;;;;;;;;5113379;28;20228;-76
2022/12/16 04:07:38;;;;;;;26.88;24.77;;;;;;;;;;5113406;28;20538;-76
2022/12/16 04:10:06;;;;;;;25.88;23.98;;;;;;;;;;5113960;28;20186;-76
2022/12/16 04:26:21;;;;;;;24.77;23.17;;;;;;;;;;5113604;28;20216;-75
2022/12/16 04:28:50;;;;;;;24.08;22.48;;;;;;;;;;5113424;28;20715;-75
2022/12/16 04:31:17;;;;;;;24.38;22.77;;;;;;;;;;5113313;28;20205;-76
